Time;durP1;ratioP1;P1;durP2;ratioP2;P2;SDS_P1;SDS_P2;PMS_P1;PMS_P2;Temp;Humidity;BMP_temperature;BMP_pressure;BME280_temperature;BME280_humidity;BME280_pressure;Samples;Min_cycle;Max_cycle;Signal;HPM_P1;HPM_P2
2021/10/01 00:00:18;;;;;;;;;;;;;;;21.57;47.36;96470.38;1053212;28;1067;-54
2021/10/01 00:00:49;;;;;;;;;;;;;;;21.56;47.25;96469.59;1052917;28;1154;-54
2021/10/01 00:01:19;;;;;;;;;;;;;;;21.56;47.33;96469.59;1052818;28;1141;-51
2021/10/01 00:01:54;;;;;;;;;;;;;;;21.56;47.23;96466.16;1053217;28;1103;-56
2021/10/01 00:02:24;;;;;;;;;;;;;;;21.57;47.39;96465.09;1051478;28;2219;-54
2021/10/01 00:02:55;;;;;;;;;;;;;;;21.56;47.14;96463.50;1049436;28;2268;-54
2021/10/01 00:03:25;;;;;;;;;;;;;;;21.55;47.10;96465.38;1052890;28;1237;-55
2021/10/01 00:03:55;;;;;;;;;;;;;;;21.56;47.11;96466.16;1053034;28;1127;-56
2021/10/01 00:04:26;;;;;;;;;;;;;;;21.55;47.15;96462.75;1049739;28;1169;-52
2021/10/01 00:04:56;;;;;;;;;;;;;;;21.56;47.16;96468.78;1050112;28;1372;-52
2021/10/01 00:05:26;;;;;;;;;;;;;;;21.56;47.35;96463.50;1052322;28;1133;-54
2021/10/01 00:05:57;;;;;;;;;;;;;;;21.56;47.13;96466.16;1050791;28;1162;-51
2021/10/01 00:06:27;;;;;;;;;;;;;;;21.56;47.40;96468.78;1052554;28;1155;-53
2021/10/01 00:06:57;;;;;;;;;;;;;;;21.55;47.14;96468.00;1045037;28;1559;-57
2021/10/01 00:07:28;;;;;;;;;;;;;;;21.55;47.30;96467.22;1050349;28;1386;-53
2021/10/01 00:07:58;;;;;;;;;;;;;;;21.55;47.34;96467.22;1049277;28;1863;-56
2021/10/01 00:08:29;;;;;;;;;;;;;;;21.55;47.60;96461.94;1048476;28;1513;-55
2021/10/01 00:08:59;;;;;;;;;;;;;;;21.55;47.09;96462.75;1049427;28;1044;-55
2021/10/01 00:09:29;;;;;;;;;;;;;;;21.55;47.03;96467.22;1052370;28;1286;-53
2021/10/01 00:10:00;;;;;;;;;;;;;;;21.55;47.18;96464.56;1050348;28;1057;-56
2021/10/01 00:10:31;;;;;;;;;;;;;;;21.55;47.38;96459.31;1048855;28;1003;-54
2021/10/01 00:11:02;;;;;;;;;;;;;;;21.55;47.29;96464.56;1051552;28;1065;-55
2021/10/01 00:11:32;;;;;;;;;;;;;;;21.55;47.04;96462.75;1049267;28;1177;-55
2021/10/01 00:12:02;;;;;;;;;;;;;;;21.54;47.29;96461.13;1051818;28;1107;-56
2021/10/01 00:12:33;;;;;;;;;;;;;;;21.55;47.18;96459.31;1048684;28;1145;-53
2021/10/01 00:13:03;;;;;;;;;;;;;;;21.54;47.26;96461.13;1049140;28;2008;-56
2021/10/01 00:13:34;;;;;;;;;;;;;;;21.54;47.17;96455.88;1051368;28;1412;-50
2021/10/01 00:14:04;;;;;;;;;;;;;;;21.55;47.03;96461.94;1049755;28;1473;-54
2021/10/01 00:14:34;;;;;;;;;;;;;;;21.54;47.04;96461.13;1050044;28;1029;-55
2021/10/01 00:15:05;;;;;;;;;;;;;;;21.54;47.12;96458.50;1050426;28;996;-53
2021/10/01 00:15:36;;;;;;;;;;;;;;;21.55;47.38;96464.56;1050317;28;1228;-50
2021/10/01 00:16:06;;;;;;;;;;;;;;;21.54;47.25;96455.06;1052316;28;1080;-54
2021/10/01 00:16:36;;;;;;;;;;;;;;;21.54;47.56;96460.34;1050099;28;2336;-54
2021/10/01 00:17:07;;;;;;;;;;;;;;;21.54;47.32;96455.88;1052400;28;1283;-56
2021/10/01 00:17:37;;;;;;;;;;;;;;;21.54;47.17;96457.69;1051934;28;882;-54
2021/10/01 00:18:07;;;;;;;;;;;;;;;21.54;47.12;96457.69;1050423;28;2045;-56
2021/10/01 00:18:38;;;;;;;;;;;;;;;21.53;47.29;96462.22;1049021;28;1780;-55
2021/10/01 00:19:08;;;;;;;;;;;;;;;21.54;47.42;96460.34;1052702;28;1033;-56
2021/10/01 00:19:38;;;;;;;;;;;;;;;21.54;47.20;96455.06;1052879;28;1914;-55
2021/10/01 00:20:09;;;;;;;;;;;;;;;21.54;47.19;96460.34;1050890;28;1131;-53
2021/10/01 00:20:39;;;;;;;;;;;;;;;21.54;47.08;96462.97;1049448;28;1193;-52
2021/10/01 00:21:10;;;;;;;;;;;;;;;21.53;47.48;96456.94;1052972;28;1107;-54
2021/10/01 00:21:40;;;;;;;;;;;;;;;21.53;47.37;96456.94;1050458;28;1109;-56
2021/10/01 00:22:10;;;;;;;;;;;;;;;21.54;47.37;96458.50;1050864;28;1358;-57
2021/10/01 00:22:41;;;;;;;;;;;;;;;21.53;47.19;96453.50;1052455;28;1027;-56
2021/10/01 00:23:11;;;;;;;;;;;;;;;21.53;47.32;96453.50;1046598;28;2077;-57
2021/10/01 00:23:41;;;;;;;;;;;;;;;21.52;47.35;96452.69;1044386;28;1159;-55
2021/10/01 00:24:12;;;;;;;;;;;;;;;21.53;46.98;96453.50;1052579;28;1045;-52
2021/10/01 00:24:43;;;;;;;;;;;;;;;21.52;47.32;96460.59;1052315;28;1462;-55
2021/10/01 00:25:14;;;;;;;;;;;;;;;21.53;47.37;96459.56;1050266;28;1156;-55
2021/10/01 00:25:44;;;;;;;;;;;;;;;21.53;47.18;96454.28;1049392;28;1037;-53
2021/10/01 00:26:15;;;;;;;;;;;;;;;21.52;47.50;96452.69;1052895;28;1054;-55
2021/10/01 00:26:45;;;;;;;;;;;;;;;21.52;47.36;96457.19;1051010;28;1161;-54
2021/10/01 00:27:17;;;;;;;;;;;;;;;21.53;47.47;96449.03;1050155;28;1655;-53
2021/10/01 00:27:47;;;;;;;;;;;;;;;21.54;47.18;96452.44;1049377;28;1046;-49
2021/10/01 00:28:18;;;;;;;;;;;;;;;21.53;47.12;96453.50;1049868;28;2221;-53
2021/10/01 00:28:48;;;;;;;;;;;;;;;21.52;47.19;96446.63;1049824;28;1165;-53
2021/10/01 00:29:18;;;;;;;;;;;;;;;21.52;47.45;96452.69;1051612;28;1996;-55
2021/10/01 00:29:49;;;;;;;;;;;;;;;21.52;47.11;96446.63;1052826;28;1048;-53
2021/10/01 00:30:19;;;;;;;;;;;;;;;21.51;47.54;96450.31;1051432;28;1092;-54
2021/10/01 00:30:49;;;;;;;;;;;;;;;21.52;47.24;96454.53;1053038;28;1114;-55
2021/10/01 00:31:20;;;;;;;;;;;;;;;21.51;47.40;96447.69;1052927;28;1137;-56
2021/10/01 00:31:50;;;;;;;;;;;;;;;21.51;47.22;96445.06;1051126;28;1149;-54
2021/10/01 00:32:20;;;;;;;;;;;;;;;21.51;47.10;96442.41;1052789;28;1146;-56
2021/10/01 00:32:52;;;;;;;;;;;;;;;21.51;47.22;96445.06;1051956;28;1064;-54
2021/10/01 00:33:23;;;;;;;;;;;;;;;21.51;47.48;96445.06;1050679;28;1972;-56
2021/10/01 00:33:53;;;;;;;;;;;;;;;21.50;47.43;96444.25;1052633;28;1088;-56
2021/10/01 00:34:23;;;;;;;;;;;;;;;21.51;47.01;96445.06;1052383;28;1247;-54
2021/10/01 00:34:53;;;;;;;;;;;;;;;21.50;47.44;96443.44;1051984;28;1270;-53
2021/10/01 00:35:24;;;;;;;;;;;;;;;21.51;47.29;96445.06;1051244;28;1287;-54
2021/10/01 00:35:54;;;;;;;;;;;;;;;21.51;47.20;96445.84;1052735;28;1041;-54
2021/10/01 00:36:25;;;;;;;;;;;;;;;21.50;47.49;96446.09;1052610;28;1142;-54
2021/10/01 00:36:55;;;;;;;;;;;;;;;21.50;46.97;96443.44;1049072;28;1573;-55
2021/10/01 00:37:26;;;;;;;;;;;;;;;21.50;47.41;96441.63;1052299;28;1303;-53
2021/10/01 00:37:58;;;;;;;;;;;;;;;21.50;47.24;96438.97;1052549;28;1024;-54
2021/10/01 00:38:29;;;;;;;;;;;;;;;21.50;47.20;96438.97;1049317;28;1984;-53
2021/10/01 00:38:59;;;;;;;;;;;;;;;21.50;47.18;96438.19;1051513;28;1091;-54
2021/10/01 00:39:30;;;;;;;;;;;;;;;21.50;47.19;96432.91;1052920;28;1902;-55
2021/10/01 00:40:00;;;;;;;;;;;;;;;21.49;47.30;96432.13;1051615;28;1220;-55
2021/10/01 00:40:30;;;;;;;;;;;;;;;21.49;47.21;96434.78;1053069;28;787;-54
2021/10/01 00:41:01;;;;;;;;;;;;;;;21.49;47.37;96428.69;1052879;28;1094;-53
2021/10/01 00:41:31;;;;;;;;;;;;;;;21.49;47.45;96428.69;1050707;28;1090;-54
2021/10/01 00:42:02;;;;;;;;;;;;;;;21.49;47.54;96426.84;1051118;28;1581;-54
2021/10/01 00:42:32;;;;;;;;;;;;;;;21.49;47.40;96432.13;1052014;28;1544;-55
2021/10/01 00:43:02;;;;;;;;;;;;;;;21.50;47.56;96430.25;1049239;28;1047;-55
2021/10/01 00:43:33;;;;;;;;;;;;;;;21.50;47.14;96427.63;1047662;28;1997;-54
2021/10/01 00:44:03;;;;;;;;;;;;;;;21.49;47.51;96426.84;1052330;28;2022;-56
2021/10/01 00:44:34;;;;;;;;;;;;;;;21.50;47.27;96430.25;1050980;28;1645;-54
2021/10/01 00:45:04;;;;;;;;;;;;;;;21.49;47.40;96426.84;1051482;28;1181;-55
2021/10/01 00:45:35;;;;;;;;;;;;;;;21.49;47.19;96426.06;1052751;28;771;-52
2021/10/01 00:46:05;;;;;;;;;;;;;;;21.49;47.55;96426.84;1052572;28;1087;-56
2021/10/01 00:46:35;;;;;;;;;;;;;;;21.49;47.37;96423.41;1048270;28;1997;-57
2021/10/01 00:47:06;;;;;;;;;;;;;;;21.49;47.28;96429.50;1052351;28;1339;-55
2021/10/01 00:47:36;;;;;;;;;;;;;;;21.49;47.45;96420.78;1052173;28;903;-55
2021/10/01 00:48:06;;;;;;;;;;;;;;;21.50;47.34;96427.63;1050464;28;1043;-53
2021/10/01 00:48:37;;;;;;;;;;;;;;;21.49;47.42;96428.69;1049151;28;2450;-51
2021/10/01 00:49:07;;;;;;;;;;;;;;;21.49;47.01;96428.69;1052564;28;1810;-55
2021/10/01 00:49:37;;;;;;;;;;;;;;;21.49;47.45;96420.78;1051077;28;1165;-56
2021/10/01 00:50:08;;;;;;;;;;;;;;;21.49;47.26;96428.69;1051913;28;1135;-53
2021/10/01 00:50:38;;;;;;;;;;;;;;;21.48;47.48;96422.63;1052738;28;835;-51
2021/10/01 00:51:09;;;;;;;;;;;;;;;21.47;47.65;96423.69;1051878;28;1728;-49
2021/10/01 00:51:40;;;;;;;;;;;;;;;21.49;47.47;96426.06;1052095;28;1181;-53
2021/10/01 00:52:10;;;;;;;;;;;;;;;21.48;47.36;96429.75;1052758;28;1094;-55
2021/10/01 00:52:40;;;;;;;;;;;;;;;21.47;47.10;96426.34;1051638;28;1110;-52
2021/10/01 00:53:11;;;;;;;;;;;;;;;21.47;47.09;96425.53;1051323;28;2375;-53
2021/10/01 00:53:42;;;;;;;;;;;;;;;21.47;47.42;96428.97;1048576;28;1872;-55
2021/10/01 00:54:12;;;;;;;;;;;;;;;21.48;47.24;96427.09;1052307;28;1022;-54
2021/10/01 00:54:43;;;;;;;;;;;;;;;21.47;47.49;96428.16;1048275;28;1153;-54
2021/10/01 00:55:13;;;;;;;;;;;;;;;21.47;47.44;96422.91;1052607;28;1109;-53
2021/10/01 00:55:44;;;;;;;;;;;;;;;21.47;47.01;96418.41;1048519;28;1171;-54
2021/10/01 00:56:14;;;;;;;;;;;;;;;21.47;47.54;96420.25;1047774;28;1138;-54
2021/10/01 00:56:44;;;;;;;;;;;;;;;21.46;47.26;96421.28;1049818;28;1296;-53
2021/10/01 00:57:15;;;;;;;;;;;;;;;21.47;47.51;96409.72;1053229;28;1426;-51
2021/10/01 00:57:46;;;;;;;;;;;;;;;21.46;47.18;96416.03;1051845;28;1165;-54
2021/10/01 00:58:17;;;;;;;;;;;;;;;21.46;47.53;96421.28;1051945;28;2070;-52
2021/10/01 00:58:47;;;;;;;;;;;;;;;21.44;47.46;96413.66;1050603;28;1559;-51
2021/10/01 00:59:17;;;;;;;;;;;;;;;21.47;47.27;96417.63;1052026;28;1176;-53
2021/10/01 00:59:48;;;;;;;;;;;;;;;21.46;47.35;96416.81;1050576;28;1902;-55
2021/10/01 01:00:26;;;;;;;;;;;;;;;21.46;47.23;96414.19;1053306;28;1149;-54
2021/10/01 01:01:11;;;;;;;;;;;;;;;21.47;47.37;96412.34;1051588;28;1043;-54
2021/10/01 01:01:42;;;;;;;;;;;;;;;21.48;47.43;96419.19;1052772;28;1105;-55
2021/10/01 01:02:12;;;;;;;;;;;;;;;21.47;47.52;96418.41;1053207;28;1507;-49
2021/10/01 01:02:43;;;;;;;;;;;;;;;21.47;47.27;96412.34;1051473;28;1003;-54
2021/10/01 01:03:13;;;;;;;;;;;;;;;21.47;47.52;96412.34;1052836;28;1113;-51
2021/10/01 01:03:50;;;;;;;;;;;;;;;21.46;47.65;96414.19;1045509;28;2351;-52
2021/10/01 01:04:20;;;;;;;;;;;;;;;21.46;47.04;96410.75;1049056;28;1126;-54
2021/10/01 01:04:51;;;;;;;;;;;;;;;21.46;47.53;96410.75;1053416;28;1047;-56
2021/10/01 01:05:22;;;;;;;;;;;;;;;21.45;47.38;96412.59;1053117;28;1189;-54
2021/10/01 01:05:52;;;;;;;;;;;;;;;21.45;47.26;96417.09;1049079;28;1249;-55
2021/10/01 01:06:28;;;;;;;;;;;;;;;21.45;47.46;96414.44;1049152;28;1139;-55
2021/10/01 01:07:06;;;;;;;;;;;;;;;21.45;47.44;96414.44;1043016;28;1971;-52
2021/10/01 01:07:38;;;;;;;;;;;;;;;21.45;47.54;96409.19;1043477;28;1143;-53
2021/10/01 01:08:09;;;;;;;;;;;;;;;21.44;47.34;96408.38;1044967;28;1080;-54
2021/10/01 01:08:42;;;;;;;;;;;;;;;21.46;47.52;96410.75;1044094;28;2362;-54
2021/10/01 01:09:38;;;;;;;;;;;;;;;21.44;47.11;96411.00;1048920;28;1169;-55
2021/10/01 01:10:09;;;;;;;;;;;;;;;21.45;47.55;96409.19;1053103;28;1151;-52
2021/10/01 01:10:48;;;;;;;;;;;;;;;21.44;47.09;96412.84;1047159;28;2141;-53
2021/10/01 01:11:44;;;;;;;;;;;;;;;21.46;47.40;96410.75;1046255;28;1241;-53
2021/10/01 01:12:52;;;;;;;;;;;;;;;21.43;47.30;96412.06;1048467;28;1697;-55
2021/10/01 01:13:38;;;;;;;;;;;;;;;21.44;47.10;96410.22;1048527;28;2047;-54
2021/10/01 01:14:11;;;;;;;;;;;;;;;21.44;47.65;96407.59;1053170;28;949;-55
2021/10/01 01:15:03;;;;;;;;;;;;;;;21.44;47.60;96412.84;1048293;28;1006;-55
2021/10/01 01:15:36;;;;;;;;;;;;;;;21.43;47.33;96400.75;1050795;28;1121;-54
2021/10/01 01:16:20;;;;;;;;;;;;;;;21.43;47.61;96406.78;1046431;28;2040;-55
2021/10/01 01:17:07;;;;;;;;;;;;;;;21.43;47.51;96406.78;1043524;28;1356;-55
2021/10/01 01:18:01;;;;;;;;;;;;;;;21.44;47.61;96407.59;1043169;28;1213;-52
2021/10/01 01:18:46;;;;;;;;;;;;;;;21.44;47.15;96407.59;1048509;28;2335;-51
2021/10/01 01:19:39;;;;;;;;;;;;;;;21.44;47.52;96404.94;1053449;28;1133;-54
2021/10/01 01:20:11;;;;;;;;;;;;;;;21.43;47.06;96404.13;1052150;28;1896;-55
2021/10/01 01:20:48;;;;;;;;;;;;;;;21.43;47.22;96406.00;1047752;28;1090;-54
2021/10/01 01:21:42;;;;;;;;;;;;;;;21.42;47.14;96407.06;1044717;28;1213;-55
2021/10/01 01:22:39;;;;;;;;;;;;;;;21.43;47.32;96400.75;1038776;28;1442;-52
2021/10/01 01:23:27;;;;;;;;;;;;;;;21.42;47.46;96407.06;1037769;28;1222;-56
2021/10/01 01:24:06;;;;;;;;;;;;;;;21.42;47.28;96407.06;1047907;28;1102;-51
2021/10/01 01:24:45;;;;;;;;;;;;;;;21.42;47.50;96401.78;1051335;28;1237;-56
2021/10/01 01:25:16;;;;;;;;;;;;;;;21.42;47.46;96401.78;1050923;28;1267;-57
2021/10/01 01:25:53;;;;;;;;;;;;;;;21.42;47.22;96399.94;1053239;28;1252;-52
2021/10/01 01:27:02;;;;;;;;;;;;;;;21.43;47.18;96400.75;1050460;28;1107;-50
2021/10/01 01:27:46;;;;;;;;;;;;;;;21.42;47.25;96397.31;1052988;28;1025;-55
2021/10/01 01:28:27;;;;;;;;;;;;;;;21.42;47.46;96399.94;1048672;28;1134;-53
2021/10/01 01:29:11;;;;;;;;;;;;;;;21.40;47.31;96395.97;1044456;28;1493;-52
2021/10/01 01:29:44;;;;;;;;;;;;;;;21.42;47.13;96396.50;1040889;28;1022;-51
2021/10/01 01:30:16;;;;;;;;;;;;;;;21.42;47.35;96399.94;1048238;28;1138;-51
2021/10/01 01:30:46;;;;;;;;;;;;;;;21.41;47.47;96400.22;1051451;28;1098;-53
2021/10/01 01:31:23;;;;;;;;;;;;;;;21.41;47.38;96402.84;1049573;28;1601;-54
2021/10/01 01:31:56;;;;;;;;;;;;;;;21.41;47.61;96398.34;1050686;28;1213;-55
2021/10/01 01:32:26;;;;;;;;;;;;;;;21.40;47.54;96396.78;1052338;28;1107;-55
2021/10/01 01:32:58;;;;;;;;;;;;;;;21.41;47.36;96397.56;1047916;28;1323;-54
2021/10/01 01:33:28;;;;;;;;;;;;;;;21.40;47.45;96395.97;1049842;28;2071;-54
2021/10/01 01:33:59;;;;;;;;;;;;;;;21.39;47.25;96392.53;1048654;28;1089;-57
2021/10/01 01:34:32;;;;;;;;;;;;;;;21.40;47.42;96388.06;1044271;28;1089;-55
2021/10/01 01:35:05;;;;;;;;;;;;;;;21.41;47.36;96392.28;1046981;28;1318;-53
2021/10/01 01:35:36;;;;;;;;;;;;;;;21.41;47.41;96394.94;1046059;28;1169;-54
2021/10/01 01:36:06;;;;;;;;;;;;;;;21.41;47.42;96387.03;1046554;28;1944;-55
2021/10/01 01:36:37;;;;;;;;;;;;;;;21.42;47.62;96393.88;1050075;28;1633;-53
2021/10/01 01:37:11;;;;;;;;;;;;;;;21.41;47.67;96392.28;1049532;28;1750;-55
2021/10/01 01:37:46;;;;;;;;;;;;;;;21.40;47.57;96391.50;1052690;28;1673;-54
2021/10/01 01:38:17;;;;;;;;;;;;;;;21.39;47.68;96389.13;1049526;28;1153;-52
2021/10/01 01:38:49;;;;;;;;;;;;;;;21.40;47.32;96390.69;1049809;28;2213;-54
2021/10/01 01:39:20;;;;;;;;;;;;;;;21.40;47.58;96391.50;1053214;28;1214;-56
2021/10/01 01:39:50;;;;;;;;;;;;;;;21.40;47.31;96390.69;1052840;28;1981;-55
2021/10/01 01:40:24;;;;;;;;;;;;;;;21.40;47.42;96390.69;1047626;28;1174;-54
2021/10/01 01:40:54;;;;;;;;;;;;;;;21.39;47.57;96389.91;1046651;28;1052;-55
2021/10/01 01:41:25;;;;;;;;;;;;;;;21.41;47.36;96389.66;1051070;28;1349;-52
2021/10/01 01:41:55;;;;;;;;;;;;;;;21.38;47.51;96388.34;1047311;28;1092;-55
2021/10/01 01:42:26;;;;;;;;;;;;;;;21.39;47.40;96389.13;1052071;28;1098;-53
2021/10/01 01:42:57;;;;;;;;;;;;;;;21.39;47.42;96389.91;1046127;28;1136;-51
2021/10/01 01:43:27;;;;;;;;;;;;;;;21.39;47.46;96389.91;1044990;28;1163;-50
2021/10/01 01:43:58;;;;;;;;;;;;;;;21.40;47.48;96385.41;1039447;28;1886;-56
2021/10/01 01:44:28;;;;;;;;;;;;;;;21.39;47.51;96375.94;1040276;28;1103;-56
2021/10/01 01:44:59;;;;;;;;;;;;;;;21.39;47.46;96386.50;1038458;28;1903;-56
2021/10/01 01:45:29;;;;;;;;;;;;;;;21.39;47.48;96381.22;1036691;28;1178;-53
2021/10/01 01:45:59;;;;;;;;;;;;;;;21.38;47.16;96374.34;1044911;28;1136;-53
2021/10/01 01:46:30;;;;;;;;;;;;;;;21.39;47.47;96378.59;1046011;28;1249;-55
2021/10/01 01:47:00;;;;;;;;;;;;;;;21.39;47.53;96373.31;1046259;28;1825;-54
2021/10/01 01:47:31;;;;;;;;;;;;;;;21.38;47.28;96383.06;1051541;28;1907;-54
2021/10/01 01:48:01;;;;;;;;;;;;;;;21.38;47.23;96371.72;1046951;28;1587;-54
2021/10/01 01:48:32;;;;;;;;;;;;;;;21.39;47.41;96373.31;1044960;28;1110;-52
2021/10/01 01:49:02;;;;;;;;;;;;;;;21.39;47.49;96373.31;1043212;28;1886;-54
2021/10/01 01:49:32;;;;;;;;;;;;;;;21.37;47.60;96370.91;1040359;28;1435;-52
2021/10/01 01:50:03;;;;;;;;;;;;;;;21.38;47.41;96369.88;1044158;28;1935;-55
2021/10/01 01:50:33;;;;;;;;;;;;;;;21.38;47.54;96371.72;1045014;28;906;-53
2021/10/01 01:51:04;;;;;;;;;;;;;;;21.37;47.46;96367.50;1047879;28;1726;-55
2021/10/01 01:51:35;;;;;;;;;;;;;;;21.38;47.43;96367.22;1044601;28;1231;-52
2021/10/01 01:52:05;;;;;;;;;;;;;;;21.38;47.49;96363.78;1043591;28;1901;-55
2021/10/01 01:52:36;;;;;;;;;;;;;;;21.37;47.48;96368.28;1048753;28;879;-54
2021/10/01 01:53:06;;;;;;;;;;;;;;;21.38;47.48;96361.97;1044855;28;1002;-53
2021/10/01 01:53:37;;;;;;;;;;;;;;;21.38;47.51;96369.88;1049297;28;833;-52
2021/10/01 01:54:07;;;;;;;;;;;;;;;21.37;47.42;96363.00;1044360;28;1075;-54
2021/10/01 01:54:37;;;;;;;;;;;;;;;21.37;47.20;96364.88;1036105;28;1429;-51
2021/10/01 01:55:08;;;;;;;;;;;;;;;21.37;47.14;96364.88;1039629;28;1937;-53
2021/10/01 01:55:38;;;;;;;;;;;;;;;21.38;47.67;96366.44;1035839;28;1674;-55
2021/10/01 01:56:09;;;;;;;;;;;;;;;21.38;47.40;96371.72;1043337;28;1107;-55
2021/10/01 01:56:41;;;;;;;;;;;;;;;21.38;47.25;96361.16;1045137;28;959;-54
2021/10/01 01:57:11;;;;;;;;;;;;;;;21.36;47.48;96364.06;1046248;28;1881;-54
2021/10/01 01:57:43;;;;;;;;;;;;;;;21.37;47.46;96359.59;1048494;28;1162;-50
2021/10/01 01:58:14;;;;;;;;;;;;;;;21.37;47.60;96367.50;1044950;28;1174;-54
2021/10/01 01:58:44;;;;;;;;;;;;;;;21.36;47.33;96361.44;1041137;28;1495;-53
2021/10/01 01:59:14;;;;;;;;;;;;;;;21.36;47.36;96356.16;1043421;28;1107;-54
2021/10/01 01:59:45;;;;;;;;;;;;;;;21.36;47.30;96350.09;1041437;28;1906;-55
2021/10/01 02:00:15;;;;;;;;;;;;;;;21.36;47.22;96355.34;1044894;28;1233;-55
2021/10/01 02:00:46;;;;;;;;;;;;;;;21.36;47.20;96358.00;1045175;28;1296;-54
2021/10/01 02:01:16;;;;;;;;;;;;;;;21.37;47.48;96359.59;1042769;28;1451;-53
2021/10/01 02:01:47;;;;;;;;;;;;;;;21.36;47.44;96356.16;1044674;28;1052;-50
2021/10/01 02:02:17;;;;;;;;;;;;;;;21.36;47.43;96364.06;1047331;28;1877;-52
2021/10/01 02:02:49;;;;;;;;;;;;;;;21.37;47.27;96356.97;1043504;28;1458;-54
2021/10/01 02:03:19;;;;;;;;;;;;;;;21.37;47.45;96362.22;1049041;28;1181;-54
2021/10/01 02:03:49;;;;;;;;;;;;;;;21.36;47.23;96358.00;1043303;28;1597;-53
2021/10/01 02:04:20;;;;;;;;;;;;;;;21.36;47.33;96358.78;1044570;28;1146;-53
2021/10/01 02:04:51;;;;;;;;;;;;;;;21.36;47.29;96358.00;1049104;28;1103;-54
2021/10/01 02:05:21;;;;;;;;;;;;;;;21.36;47.37;96358.00;1048802;28;1255;-54
2021/10/01 02:05:51;;;;;;;;;;;;;;;21.36;47.50;96363.28;1050847;28;1145;-55
2021/10/01 02:06:22;;;;;;;;;;;;;;;21.35;47.20;96361.69;1053184;28;1153;-54
2021/10/01 02:06:52;;;;;;;;;;;;;;;21.34;47.44;96360.91;1051421;28;1604;-55
2021/10/01 02:07:23;;;;;;;;;;;;;;;21.35;47.41;96361.69;1050236;28;1864;-53
2021/10/01 02:07:54;;;;;;;;;;;;;;;21.36;47.36;96365.91;1046697;28;1770;-55
2021/10/01 02:08:24;;;;;;;;;;;;;;;21.36;47.50;96360.63;1049052;28;1138;-55
2021/10/01 02:08:55;;;;;;;;;;;;;;;21.35;47.52;96362.47;1044639;28;1034;-49
2021/10/01 02:09:25;;;;;;;;;;;;;;;21.36;47.59;96360.63;1045125;28;1163;-51
2021/10/01 02:09:56;;;;;;;;;;;;;;;21.36;47.46;96364.06;1046762;28;1041;-54
2021/10/01 02:10:27;;;;;;;;;;;;;;;21.36;47.35;96358.78;1044023;28;2036;-50
2021/10/01 02:10:57;;;;;;;;;;;;;;;21.35;47.12;96356.44;1049155;28;1177;-52
2021/10/01 02:11:27;;;;;;;;;;;;;;;21.35;47.51;96356.44;1044999;28;1127;-56
2021/10/01 02:11:58;;;;;;;;;;;;;;;21.34;47.38;96360.91;1048745;28;1067;-53
2021/10/01 02:12:29;;;;;;;;;;;;;;;21.34;47.46;96354.84;1049723;28;1311;-53
2021/10/01 02:12:59;;;;;;;;;;;;;;;21.35;47.42;96351.91;1048542;28;2130;-54
2021/10/01 02:13:30;;;;;;;;;;;;;;;21.35;47.53;96359.06;1053409;28;1265;-54
2021/10/01 02:14:00;;;;;;;;;;;;;;;21.35;47.38;96353.78;1050484;28;1333;-54
2021/10/01 02:14:32;;;;;;;;;;;;;;;21.35;47.46;96351.16;1048890;28;1181;-54
2021/10/01 02:15:02;;;;;;;;;;;;;;;21.35;47.60;96356.44;1049875;28;1510;-56
2021/10/01 02:15:33;;;;;;;;;;;;;;;21.35;47.42;96354.56;1047938;28;1157;-53
2021/10/01 02:16:03;;;;;;;;;;;;;;;21.35;47.51;96356.44;1051570;28;1068;-56
2021/10/01 02:16:33;;;;;;;;;;;;;;;21.34;47.44;96354.84;1048385;28;2221;-53
2021/10/01 02:17:04;;;;;;;;;;;;;;;21.33;47.37;96348.75;1051582;28;1311;-55
2021/10/01 02:17:35;;;;;;;;;;;;;;;21.34;47.24;96349.56;1048362;28;796;-53
2021/10/01 02:18:05;;;;;;;;;;;;;;;21.34;47.19;96349.56;1042623;28;1477;-52
2021/10/01 02:18:36;;;;;;;;;;;;;;;21.33;47.22;96354.03;1044878;28;863;-53
2021/10/01 02:19:06;;;;;;;;;;;;;;;21.34;47.43;96347.72;1044440;28;1260;-51
2021/10/01 02:19:37;;;;;;;;;;;;;;;21.34;47.37;96346.91;1039743;28;1930;-54
2021/10/01 02:20:07;;;;;;;;;;;;;;;21.34;47.37;96344.28;1044023;28;1081;-53
2021/10/01 02:20:38;;;;;;;;;;;;;;;21.34;47.50;96345.09;1040725;28;1187;-56
2021/10/01 02:21:08;;;;;;;;;;;;;;;21.34;47.31;96344.28;1040799;28;1085;-54
2021/10/01 02:21:39;;;;;;;;;;;;;;;21.34;47.37;96347.72;1037468;28;2176;-56
2021/10/01 02:22:09;;;;;;;;;;;;;;;21.33;47.47;96340.09;1044336;28;1143;-53
2021/10/01 02:22:40;;;;;;;;;;;;;;;21.33;47.37;96342.72;1044297;28;721;-54
2021/10/01 02:23:10;;;;;;;;;;;;;;;21.33;47.23;96343.47;1040885;28;1000;-55
2021/10/01 02:23:40;;;;;;;;;;;;;;;21.34;47.29;96344.28;1044563;28;1194;-51
2021/10/01 02:24:11;;;;;;;;;;;;;;;21.32;47.50;96336.66;1048929;28;1073;-54
2021/10/01 02:24:42;;;;;;;;;;;;;;;21.33;47.50;96342.72;1052476;28;1111;-55
2021/10/01 02:27:06;;;;;;;;;;;;;;;21.33;47.34;96342.72;1043300;28;1066;-54
2021/10/01 02:27:36;;;;;;;;;;;;;;;21.32;47.32;96341.91;1047739;28;1080;-53
2021/10/01 02:28:07;;;;;;;;;;;;;;;21.32;47.24;96335.84;1051952;28;1080;-53
2021/10/01 02:28:39;;;;;;;;;;;;;;;21.32;47.24;96341.91;1051058;28;1134;-55
2021/10/01 02:29:21;;;;;;;;;;;;;;;21.32;47.35;96333.22;1050132;28;1012;-54
2021/10/01 02:29:52;;;;;;;;;;;;;;;21.33;47.08;96337.44;1052456;28;1229;-53
2021/10/01 02:30:23;;;;;;;;;;;;;;;21.32;47.43;96336.66;1052747;28;1150;-54
2021/10/01 02:30:53;;;;;;;;;;;;;;;21.32;47.08;96336.66;1053065;28;1025;-53
2021/10/01 02:31:33;;;;;;;;;;;;;;;21.31;47.40;96329.78;1051234;28;1988;-54
2021/10/01 02:32:06;;;;;;;;;;;;;;;21.32;47.39;96341.13;1051890;28;1158;-54
2021/10/01 02:32:52;;;;;;;;;;;;;;;21.32;47.47;96338.47;1047739;28;817;-54
2021/10/01 02:33:31;;;;;;;;;;;;;;;21.32;47.47;96343.75;1050713;28;1428;-55
2021/10/01 02:34:02;;;;;;;;;;;;;;;21.32;47.42;96341.13;1051540;28;1092;-52
2021/10/01 02:34:42;;;;;;;;;;;;;;;21.31;47.39;96336.91;1048556;28;761;-54
2021/10/01 02:35:13;;;;;;;;;;;;;;;21.32;47.52;96335.84;1050552;28;1625;-54
2021/10/01 02:35:43;;;;;;;;;;;;;;;21.31;47.23;96339.56;1052938;28;1048;-52
2021/10/01 02:36:13;;;;;;;;;;;;;;;21.30;47.45;96338.75;1048713;28;1200;-56
2021/10/01 02:36:44;;;;;;;;;;;;;;;21.30;47.10;96337.97;1049738;28;1820;-55
2021/10/01 02:37:14;;;;;;;;;;;;;;;21.31;47.38;96345.59;1048871;28;1371;-54
2021/10/01 02:37:44;;;;;;;;;;;;;;;21.31;47.03;96342.19;1048558;28;1024;-54
2021/10/01 02:38:15;;;;;;;;;;;;;;;21.30;47.24;96340.59;1052708;28;1161;-52
2021/10/01 02:38:45;;;;;;;;;;;;;;;21.31;47.07;96334.28;1052945;28;1009;-55
2021/10/01 02:39:16;;;;;;;;;;;;;;;21.31;47.37;96342.97;1053295;28;1118;-53
2021/10/01 02:39:46;;;;;;;;;;;;;;;21.31;47.19;96339.56;1053288;28;1977;-54
2021/10/01 02:40:17;;;;;;;;;;;;;;;21.31;47.36;96339.56;1044889;28;1455;-57
2021/10/01 02:40:47;;;;;;;;;;;;;;;21.29;47.05;96334.53;1053295;28;1218;-55
2021/10/01 02:41:17;;;;;;;;;;;;;;;21.30;47.36;96335.31;1052930;28;1071;-56
2021/10/01 02:41:48;;;;;;;;;;;;;;;21.29;47.19;96333.75;1049851;28;2169;-56
2021/10/01 02:42:18;;;;;;;;;;;;;;;21.29;47.36;96331.88;1053084;28;1036;-55
2021/10/01 02:42:49;;;;;;;;;;;;;;;21.30;47.17;96332.69;1052668;28;1020;-56
2021/10/01 02:43:19;;;;;;;;;;;;;;;21.30;47.05;96330.03;1050207;28;1649;-54
2021/10/01 02:43:49;;;;;;;;;;;;;;;21.30;47.16;96332.69;1050536;28;1957;-53
2021/10/01 02:44:20;;;;;;;;;;;;;;;21.30;47.34;96332.69;1053122;28;1075;-53
2021/10/01 02:44:50;;;;;;;;;;;;;;;21.30;47.26;96327.41;1052977;28;1118;-54
2021/10/01 02:45:20;;;;;;;;;;;;;;;21.29;47.22;96321.34;1053607;28;1118;-50
2021/10/01 02:45:51;;;;;;;;;;;;;;;21.29;47.33;96320.56;1053875;28;1075;-55
2021/10/01 02:46:21;;;;;;;;;;;;;;;21.29;47.49;96325.84;1050884;28;1883;-55
2021/10/01 02:46:52;;;;;;;;;;;;;;;21.30;47.06;96324.78;1051313;28;1910;-54
2021/10/01 02:47:25;;;;;;;;;;;;;;;21.29;47.05;96323.97;1053749;28;1352;-53
2021/10/01 02:47:56;;;;;;;;;;;;;;;21.29;47.39;96321.34;1051169;28;1096;-54
2021/10/01 02:48:26;;;;;;;;;;;;;;;21.29;47.32;96321.34;1052025;28;1844;-54
2021/10/01 02:48:57;;;;;;;;;;;;;;;21.29;47.17;96325.84;1053422;28;1091;-55
2021/10/01 02:49:27;;;;;;;;;;;;;;;21.28;47.43;96330.31;1047655;28;1955;-55
2021/10/01 02:49:57;;;;;;;;;;;;;;;21.29;47.29;96321.34;1050353;28;1678;-54
2021/10/01 02:50:28;;;;;;;;;;;;;;;21.29;47.28;96328.47;1052597;28;1155;-55
2021/10/01 02:51:00;;;;;;;;;;;;;;;21.29;47.20;96328.47;1052766;28;1595;-55
2021/10/01 02:51:30;;;;;;;;;;;;;;;21.29;47.31;96334.53;1044574;28;1894;-54
2021/10/01 02:52:04;;;;;;;;;;;;;;;21.29;47.42;96331.13;1048010;28;1057;-56